sensor_id;sensor_type;location;lat;lon;timestamp;P1;durP1;ratioP1;P2;durP2;ratioP2
74375;SDS011;62812;55.188;61.302;2023-08-01T00:01:58;38.28;;;13.88;;
74375;SDS011;62812;55.188;61.302;2023-08-01T00:04:26;37.47;;;12.60;;
74375;SDS011;62812;55.188;61.302;2023-08-01T00:06:53;38.83;;;14.52;;
74375;SDS011;62812;55.188;61.302;2023-08-01T00:09:21;36.75;;;15.70;;
74375;SDS011;62812;55.188;61.302;2023-08-01T00:11:49;36.15;;;15.50;;
74375;SDS011;62812;55.188;61.302;2023-08-01T00:14:18;46.10;;;15.13;;
74375;SDS011;62812;55.188;61.302;2023-08-01T00:16:46;42.08;;;13.85;;
74375;SDS011;62812;55.188;61.302;2023-08-01T00:19:14;42.10;;;15.02;;
74375;SDS011;62812;55.188;61.302;2023-08-01T00:21:41;37.10;;;13.13;;
74375;SDS011;62812;55.188;61.302;2023-08-01T00:24:08;30.35;;;13.18;;
74375;SDS011;62812;55.188;61.302;2023-08-01T00:26:35;33.92;;;11.50;;
74375;SDS011;62812;55.188;61.302;2023-08-01T00:29:02;33.83;;;11.50;;
74375;SDS011;62812;55.188;61.302;2023-08-01T00:31:31;24.27;;;11.10;;
74375;SDS011;62812;55.188;61.302;2023-08-01T00:33:57;25.88;;;11.23;;
74375;SDS011;62812;55.188;61.302;2023-08-01T00:36:25;25.05;;;11.10;;
74375;SDS011;62812;55.188;61.302;2023-08-01T00:38:52;26.02;;;9.85;;
74375;SDS011;62812;55.188;61.302;2023-08-01T00:41:19;26.67;;;9.98;;
74375;SDS011;62812;55.188;61.302;2023-08-01T00:43:48;20.08;;;10.52;;
74375;SDS011;62812;55.188;61.302;2023-08-01T00:46:15;17.02;;;8.80;;
74375;SDS011;62812;55.188;61.302;2023-08-01T00:48:44;17.02;;;9.63;;
74375;SDS011;62812;55.188;61.302;2023-08-01T00:51:11;18.80;;;9.50;;
74375;SDS011;62812;55.188;61.302;2023-08-01T00:53:38;15.55;;;8.63;;
74375;SDS011;62812;55.188;61.302;2023-08-01T00:56:06;18.63;;;8.60;;
74375;SDS011;62812;55.188;61.302;2023-08-01T00:58:33;16.60;;;9.27;;
74375;SDS011;62812;55.188;61.302;2023-08-01T01:01:00;18.08;;;8.85;;
74375;SDS011;62812;55.188;61.302;2023-08-01T01:03:29;13.77;;;7.80;;
74375;SDS011;62812;55.188;61.302;2023-08-01T01:06:01;18.05;;;8.15;;
74375;SDS011;62812;55.188;61.302;2023-08-01T01:08:33;16.23;;;8.32;;
74375;SDS011;62812;55.188;61.302;2023-08-01T01:11:00;17.45;;;7.93;;
74375;SDS011;62812;55.188;61.302;2023-08-01T01:13:30;14.10;;;7.47;;
74375;SDS011;62812;55.188;61.302;2023-08-01T01:15:57;16.83;;;8.07;;
74375;SDS011;62812;55.188;61.302;2023-08-01T01:18:25;12.15;;;6.82;;
74375;SDS011;62812;55.188;61.302;2023-08-01T01:20:54;12.90;;;7.60;;
74375;SDS011;62812;55.188;61.302;2023-08-01T01:23:21;14.70;;;7.15;;
74375;SDS011;62812;55.188;61.302;2023-08-01T01:25:49;12.68;;;7.05;;
74375;SDS011;62812;55.188;61.302;2023-08-01T01:28:19;14.57;;;7.60;;
74375;SDS011;62812;55.188;61.302;2023-08-01T01:30:47;13.45;;;7.75;;
74375;SDS011;62812;55.188;61.302;2023-08-01T01:33:15;13.32;;;8.13;;
74375;SDS011;62812;55.188;61.302;2023-08-01T01:35:42;14.73;;;7.85;;
74375;SDS011;62812;55.188;61.302;2023-08-01T01:38:11;12.93;;;7.07;;
74375;SDS011;62812;55.188;61.302;2023-08-01T01:40:39;18.55;;;8.27;;
74375;SDS011;62812;55.188;61.302;2023-08-01T01:43:07;13.93;;;7.60;;
74375;SDS011;62812;55.188;61.302;2023-08-01T01:45:34;15.30;;;8.00;;
74375;SDS011;62812;55.188;61.302;2023-08-01T01:48:01;13.50;;;7.38;;
74375;SDS011;62812;55.188;61.302;2023-08-01T01:50:28;17.25;;;8.23;;
74375;SDS011;62812;55.188;61.302;2023-08-01T01:52:56;15.35;;;8.13;;
74375;SDS011;62812;55.188;61.302;2023-08-01T01:55:27;16.55;;;9.50;;
74375;SDS011;62812;55.188;61.302;2023-08-01T01:57:54;14.48;;;8.30;;
74375;SDS011;62812;55.188;61.302;2023-08-01T02:00:21;13.77;;;8.32;;
74375;SDS011;62812;55.188;61.302;2023-08-01T02:02:48;15.57;;;8.90;;
74375;SDS011;62812;55.188;61.302;2023-08-01T02:05:17;16.02;;;9.27;;
74375;SDS011;62812;55.188;61.302;2023-08-01T02:07:44;16.98;;;9.15;;
74375;SDS011;62812;55.188;61.302;2023-08-01T02:10:12;19.30;;;9.65;;
74375;SDS011;62812;55.188;61.302;2023-08-01T02:12:43;17.45;;;9.98;;
74375;SDS011;62812;55.188;61.302;2023-08-01T02:15:12;19.88;;;10.85;;
74375;SDS011;62812;55.188;61.302;2023-08-01T02:17:39;20.05;;;9.85;;
74375;SDS011;62812;55.188;61.302;2023-08-01T02:20:06;21.58;;;9.77;;
74375;SDS011;62812;55.188;61.302;2023-08-01T02:22:35;20.77;;;10.85;;
74375;SDS011;62812;55.188;61.302;2023-08-01T02:25:02;26.35;;;12.68;;
74375;SDS011;62812;55.188;61.302;2023-08-01T02:27:29;38.13;;;17.75;;
74375;SDS011;62812;55.188;61.302;2023-08-01T02:29:58;29.95;;;14.48;;
74375;SDS011;62812;55.188;61.302;2023-08-01T02:32:25;39.70;;;18.40;;
74375;SDS011;62812;55.188;61.302;2023-08-01T02:34:52;44.30;;;21.05;;
74375;SDS011;62812;55.188;61.302;2023-08-01T02:37:19;55.20;;;22.70;;
74375;SDS011;62812;55.188;61.302;2023-08-01T02:39:46;55.70;;;23.98;;
74375;SDS011;62812;55.188;61.302;2023-08-01T02:42:13;50.63;;;20.77;;
74375;SDS011;62812;55.188;61.302;2023-08-01T02:44:42;48.95;;;19.25;;
74375;SDS011;62812;55.188;61.302;2023-08-01T02:47:13;46.03;;;17.42;;
74375;SDS011;62812;55.188;61.302;2023-08-01T02:49:40;36.50;;;14.13;;
74375;SDS011;62812;55.188;61.302;2023-08-01T02:52:07;28.98;;;13.57;;
74375;SDS011;62812;55.188;61.302;2023-08-01T02:54:36;32.08;;;13.25;;
74375;SDS011;62812;55.188;61.302;2023-08-01T02:57:04;22.90;;;11.73;;
74375;SDS011;62812;55.188;61.302;2023-08-01T02:59:31;23.83;;;11.43;;
74375;SDS011;62812;55.188;61.302;2023-08-01T03:01:59;26.52;;;11.80;;
74375;SDS011;62812;55.188;61.302;2023-08-01T03:04:27;30.67;;;11.68;;
74375;SDS011;62812;55.188;61.302;2023-08-01T03:06:54;26.33;;;12.70;;
74375;SDS011;62812;55.188;61.302;2023-08-01T03:09:21;29.20;;;12.93;;
74375;SDS011;62812;55.188;61.302;2023-08-01T03:11:48;27.77;;;11.70;;
74375;SDS011;62812;55.188;61.302;2023-08-01T03:14:15;29.15;;;13.30;;
74375;SDS011;62812;55.188;61.302;2023-08-01T03:16:42;26.67;;;12.43;;
74375;SDS011;62812;55.188;61.302;2023-08-01T03:19:09;27.77;;;13.32;;
74375;SDS011;62812;55.188;61.302;2023-08-01T03:21:39;28.58;;;12.68;;
74375;SDS011;62812;55.188;61.302;2023-08-01T03:24:06;27.27;;;12.05;;
74375;SDS011;62812;55.188;61.302;2023-08-01T03:26:35;25.02;;;12.63;;
74375;SDS011;62812;55.188;61.302;2023-08-01T03:29:03;24.67;;;11.23;;
74375;SDS011;62812;55.188;61.302;2023-08-01T03:31:31;21.73;;;10.27;;
74375;SDS011;62812;55.188;61.302;2023-08-01T03:33:59;25.55;;;11.75;;
74375;SDS011;62812;55.188;61.302;2023-08-01T03:36:28;22.33;;;8.95;;
74375;SDS011;62812;55.188;61.302;2023-08-01T03:39:04;20.92;;;9.68;;
74375;SDS011;62812;55.188;61.302;2023-08-01T03:41:39;21.40;;;10.02;;
74375;SDS011;62812;55.188;61.302;2023-08-01T03:44:06;25.75;;;11.13;;
74375;SDS011;62812;55.188;61.302;2023-08-01T03:46:33;22.45;;;10.15;;
74375;SDS011;62812;55.188;61.302;2023-08-01T03:49:02;32.45;;;12.93;;
74375;SDS011;62812;55.188;61.302;2023-08-01T03:51:29;30.02;;;12.23;;
74375;SDS011;62812;55.188;61.302;2023-08-01T03:53:56;29.38;;;11.70;;
74375;SDS011;62812;55.188;61.302;2023-08-01T03:56:25;24.15;;;10.25;;
74375;SDS011;62812;55.188;61.302;2023-08-01T03:58:57;24.80;;;10.75;;
74375;SDS011;62812;55.188;61.302;2023-08-01T04:01:23;23.50;;;11.32;;
74375;SDS011;62812;55.188;61.302;2023-08-01T04:03:51;24.27;;;11.18;;
74375;SDS011;62812;55.188;61.302;2023-08-01T04:06:17;24.75;;;11.73;;
74375;SDS011;62812;55.188;61.302;2023-08-01T04:09:06;22.05;;;11.02;;
74375;SDS011;62812;55.188;61.302;2023-08-01T04:11:34;22.67;;;10.50;;
74375;SDS011;62812;55.188;61.302;2023-08-01T04:14:01;25.75;;;10.07;;
74375;SDS011;62812;55.188;61.302;2023-08-01T04:16:27;17.55;;;8.93;;
74375;SDS011;62812;55.188;61.302;2023-08-01T04:18:55;22.25;;;10.10;;
74375;SDS011;62812;55.188;61.302;2023-08-01T04:21:23;23.80;;;10.05;;
74375;SDS011;62812;55.188;61.302;2023-08-01T04:23:50;19.33;;;9.23;;
74375;SDS011;62812;55.188;61.302;2023-08-01T04:26:18;30.48;;;10.15;;
74375;SDS011;62812;55.188;61.302;2023-08-01T04:28:45;30.27;;;10.15;;
74375;SDS011;62812;55.188;61.302;2023-08-01T04:31:14;30.30;;;9.95;;
74375;SDS011;62812;55.188;61.302;2023-08-01T04:33:41;23.40;;;9.90;;
74375;SDS011;62812;55.188;61.302;2023-08-01T04:36:10;28.73;;;9.48;;
74375;SDS011;62812;55.188;61.302;2023-08-01T04:38:37;30.02;;;10.73;;
74375;SDS011;62812;55.188;61.302;2023-08-01T04:41:04;37.47;;;11.13;;
74375;SDS011;62812;55.188;61.302;2023-08-01T04:43:36;33.47;;;11.75;;
74375;SDS011;62812;55.188;61.302;2023-08-01T04:46:03;33.08;;;11.93;;
74375;SDS011;62812;55.188;61.302;2023-08-01T04:48:30;38.30;;;13.02;;
74375;SDS011;62812;55.188;61.302;2023-08-01T04:50:56;35.95;;;13.07;;
74375;SDS011;62812;55.188;61.302;2023-08-01T04:53:24;30.63;;;13.45;;
74375;SDS011;62812;55.188;61.302;2023-08-01T04:55:55;33.97;;;12.63;;
74375;SDS011;62812;55.188;61.302;2023-08-01T04:58:22;22.85;;;10.05;;
74375;SDS011;62812;55.188;61.302;2023-08-01T05:00:51;18.48;;;9.15;;
74375;SDS011;62812;55.188;61.302;2023-08-01T05:03:17;25.17;;;10.07;;
74375;SDS011;62812;55.188;61.302;2023-08-01T05:05:44;19.83;;;9.43;;
74375;SDS011;62812;55.188;61.302;2023-08-01T05:08:15;21.23;;;10.43;;
74375;SDS011;62812;55.188;61.302;2023-08-01T05:10:41;19.60;;;9.57;;
74375;SDS011;62812;55.188;61.302;2023-08-01T05:13:08;18.20;;;9.90;;
74375;SDS011;62812;55.188;61.302;2023-08-01T05:15:34;26.90;;;10.50;;
74375;SDS011;62812;55.188;61.302;2023-08-01T05:18:03;22.17;;;10.70;;
74375;SDS011;62812;55.188;61.302;2023-08-01T05:20:30;24.85;;;10.45;;
74375;SDS011;62812;55.188;61.302;2023-08-01T05:28:12;19.45;;;8.90;;
74375;SDS011;62812;55.188;61.302;2023-08-01T05:30:46;29.63;;;12.45;;
74375;SDS011;62812;55.188;61.302;2023-08-01T05:38:14;32.25;;;11.88;;
74375;SDS011;62812;55.188;61.302;2023-08-01T05:43:50;48.80;;;16.38;;
74375;SDS011;62812;55.188;61.302;2023-08-01T05:46:21;41.72;;;15.90;;
74375;SDS011;62812;55.188;61.302;2023-08-01T05:48:49;39.17;;;14.38;;
74375;SDS011;62812;55.188;61.302;2023-08-01T05:51:16;34.28;;;13.27;;
74375;SDS011;62812;55.188;61.302;2023-08-01T05:53:45;37.08;;;13.55;;
74375;SDS011;62812;55.188;61.302;2023-08-01T05:56:11;29.58;;;12.68;;
74375;SDS011;62812;55.188;61.302;2023-08-01T05:58:41;24.45;;;10.70;;
74375;SDS011;62812;55.188;61.302;2023-08-01T06:01:10;29.45;;;11.10;;
74375;SDS011;62812;55.188;61.302;2023-08-01T06:03:38;24.05;;;9.00;;
74375;SDS011;62812;55.188;61.302;2023-08-01T06:06:05;24.65;;;9.38;;
74375;SDS011;62812;55.188;61.302;2023-08-01T06:08:32;20.77;;;10.73;;
74375;SDS011;62812;55.188;61.302;2023-08-01T06:11:01;19.98;;;9.43;;
74375;SDS011;62812;55.188;61.302;2023-08-01T06:13:28;26.05;;;11.25;;
74375;SDS011;62812;55.188;61.302;2023-08-01T06:15:55;16.75;;;9.02;;
74375;SDS011;62812;55.188;61.302;2023-08-01T06:18:22;19.00;;;9.25;;
74375;SDS011;62812;55.188;61.302;2023-08-01T06:20:48;16.15;;;8.23;;
74375;SDS011;62812;55.188;61.302;2023-08-01T06:23:15;16.60;;;9.00;;
74375;SDS011;62812;55.188;61.302;2023-08-01T06:25:42;22.23;;;10.02;;
74375;SDS011;62812;55.188;61.302;2023-08-01T06:28:10;21.65;;;12.07;;
74375;SDS011;62812;55.188;61.302;2023-08-01T06:30:37;20.30;;;10.45;;
74375;SDS011;62812;55.188;61.302;2023-08-01T06:33:04;17.05;;;8.43;;
74375;SDS011;62812;55.188;61.302;2023-08-01T06:35:31;17.45;;;9.00;;
74375;SDS011;62812;55.188;61.302;2023-08-01T06:38:01;21.90;;;9.93;;
74375;SDS011;62812;55.188;61.302;2023-08-01T06:40:28;29.85;;;13.18;;
74375;SDS011;62812;55.188;61.302;2023-08-01T06:42:55;24.77;;;11.07;;
74375;SDS011;62812;55.188;61.302;2023-08-01T06:45:29;27.88;;;11.95;;
74375;SDS011;62812;55.188;61.302;2023-08-01T06:48:00;27.27;;;13.05;;
74375;SDS011;62812;55.188;61.302;2023-08-01T06:50:30;18.02;;;9.50;;
74375;SDS011;62812;55.188;61.302;2023-08-01T06:53:01;23.17;;;9.63;;
74375;SDS011;62812;55.188;61.302;2023-08-01T06:55:28;29.85;;;11.25;;
74375;SDS011;62812;55.188;61.302;2023-08-01T06:57:55;29.92;;;11.20;;
74375;SDS011;62812;55.188;61.302;2023-08-01T07:00:43;29.95;;;10.95;;
74375;SDS011;62812;55.188;61.302;2023-08-01T07:03:39;21.25;;;9.60;;
74375;SDS011;62812;55.188;61.302;2023-08-01T07:06:06;16.30;;;8.02;;
74375;SDS011;62812;55.188;61.302;2023-08-01T07:08:38;18.27;;;7.65;;
74375;SDS011;62812;55.188;61.302;2023-08-01T07:11:25;11.00;;;5.55;;
74375;SDS011;62812;55.188;61.302;2023-08-01T07:13:58;12.32;;;6.00;;
74375;SDS011;62812;55.188;61.302;2023-08-01T07:16:29;12.60;;;5.50;;
74375;SDS011;62812;55.188;61.302;2023-08-01T07:18:57;19.58;;;8.73;;
74375;SDS011;62812;55.188;61.302;2023-08-01T07:21:25;24.58;;;8.23;;
74375;SDS011;62812;55.188;61.302;2023-08-01T07:23:54;13.70;;;6.57;;
74375;SDS011;62812;55.188;61.302;2023-08-01T07:26:23;12.25;;;6.35;;
74375;SDS011;62812;55.188;61.302;2023-08-01T07:28:50;21.60;;;6.13;;
74375;SDS011;62812;55.188;61.302;2023-08-01T07:31:18;16.23;;;5.53;;
74375;SDS011;62812;55.188;61.302;2023-08-01T07:33:57;10.85;;;5.63;;
74375;SDS011;62812;55.188;61.302;2023-08-01T07:36:39;9.27;;;5.10;;
74375;SDS011;62812;55.188;61.302;2023-08-01T07:39:06;12.13;;;5.30;;
74375;SDS011;62812;55.188;61.302;2023-08-01T07:41:49;19.70;;;7.93;;
74375;SDS011;62812;55.188;61.302;2023-08-01T07:44:35;21.75;;;7.47;;
74375;SDS011;62812;55.188;61.302;2023-08-01T07:47:03;16.35;;;6.90;;
74375;SDS011;62812;55.188;61.302;2023-08-01T07:49:32;14.82;;;6.65;;
74375;SDS011;62812;55.188;61.302;2023-08-01T07:51:59;17.85;;;7.85;;
74375;SDS011;62812;55.188;61.302;2023-08-01T07:54:26;16.58;;;7.35;;
74375;SDS011;62812;55.188;61.302;2023-08-01T07:56:53;16.25;;;7.63;;
74375;SDS011;62812;55.188;61.302;2023-08-01T07:59:21;18.95;;;7.68;;
74375;SDS011;62812;55.188;61.302;2023-08-01T08:01:48;20.80;;;7.82;;
74375;SDS011;62812;55.188;61.302;2023-08-01T08:06:45;16.75;;;7.57;;
74375;SDS011;62812;55.188;61.302;2023-08-01T08:09:12;14.70;;;6.63;;
74375;SDS011;62812;55.188;61.302;2023-08-01T08:11:39;20.40;;;8.13;;
74375;SDS011;62812;55.188;61.302;2023-08-01T08:14:19;18.05;;;8.60;;
74375;SDS011;62812;55.188;61.302;2023-08-01T08:16:49;17.90;;;8.13;;
74375;SDS011;62812;55.188;61.302;2023-08-01T08:19:24;21.63;;;8.55;;
74375;SDS011;62812;55.188;61.302;2023-08-01T08:21:54;16.67;;;7.47;;
74375;SDS011;62812;55.188;61.302;2023-08-01T08:24:21;13.48;;;6.90;;
74375;SDS011;62812;55.188;61.302;2023-08-01T08:26:47;18.65;;;7.82;;
74375;SDS011;62812;55.188;61.302;2023-08-01T08:29:27;18.25;;;7.90;;
74375;SDS011;62812;55.188;61.302;2023-08-01T08:31:57;18.73;;;7.60;;
74375;SDS011;62812;55.188;61.302;2023-08-01T08:34:24;17.80;;;6.53;;
74375;SDS011;62812;55.188;61.302;2023-08-01T08:36:52;14.35;;;6.90;;
74375;SDS011;62812;55.188;61.302;2023-08-01T08:39:20;12.35;;;5.63;;
74375;SDS011;62812;55.188;61.302;2023-08-01T08:41:47;16.83;;;7.18;;
74375;SDS011;62812;55.188;61.302;2023-08-01T08:44:17;15.02;;;6.53;;
74375;SDS011;62812;55.188;61.302;2023-08-01T08:46:50;13.23;;;5.72;;
74375;SDS011;62812;55.188;61.302;2023-08-01T08:49:17;14.32;;;6.45;;
74375;SDS011;62812;55.188;61.302;2023-08-01T08:51:46;14.93;;;6.22;;
74375;SDS011;62812;55.188;61.302;2023-08-01T08:54:16;18.38;;;6.55;;
74375;SDS011;62812;55.188;61.302;2023-08-01T08:59:36;13.00;;;6.68;;
74375;SDS011;62812;55.188;61.302;2023-08-01T09:02:05;14.48;;;7.30;;
74375;SDS011;62812;55.188;61.302;2023-08-01T09:04:36;16.35;;;6.50;;
74375;SDS011;62812;55.188;61.302;2023-08-01T09:07:06;12.55;;;6.25;;
74375;SDS011;62812;55.188;61.302;2023-08-01T09:09:36;13.82;;;6.55;;
74375;SDS011;62812;55.188;61.302;2023-08-01T09:12:04;11.10;;;5.18;;
74375;SDS011;62812;55.188;61.302;2023-08-01T09:14:32;13.57;;;6.05;;
74375;SDS011;62812;55.188;61.302;2023-08-01T09:17:05;14.70;;;5.00;;
74375;SDS011;62812;55.188;61.302;2023-08-01T09:19:33;16.25;;;5.93;;
74375;SDS011;62812;55.188;61.302;2023-08-01T09:22:01;16.55;;;7.25;;
74375;SDS011;62812;55.188;61.302;2023-08-01T09:24:28;16.08;;;7.50;;
74375;SDS011;62812;55.188;61.302;2023-08-01T09:27:03;14.90;;;6.47;;
74375;SDS011;62812;55.188;61.302;2023-08-01T09:29:31;26.05;;;8.00;;
74375;SDS011;62812;55.188;61.302;2023-08-01T09:32:11;24.67;;;8.68;;
74375;SDS011;62812;55.188;61.302;2023-08-01T09:34:38;20.70;;;6.85;;
74375;SDS011;62812;55.188;61.302;2023-08-01T09:37:06;22.00;;;6.45;;
74375;SDS011;62812;55.188;61.302;2023-08-01T09:39:33;17.58;;;5.63;;
74375;SDS011;62812;55.188;61.302;2023-08-01T09:42:00;15.95;;;5.97;;
74375;SDS011;62812;55.188;61.302;2023-08-01T09:44:34;13.35;;;5.43;;
74375;SDS011;62812;55.188;61.302;2023-08-01T09:47:03;17.13;;;5.50;;
74375;SDS011;62812;55.188;61.302;2023-08-01T09:49:32;14.85;;;6.60;;
74375;SDS011;62812;55.188;61.302;2023-08-01T09:52:00;15.20;;;6.50;;
74375;SDS011;62812;55.188;61.302;2023-08-01T09:54:27;20.58;;;6.07;;
74375;SDS011;62812;55.188;61.302;2023-08-01T09:56:54;12.88;;;4.80;;
74375;SDS011;62812;55.188;61.302;2023-08-01T09:59:25;13.88;;;5.38;;
74375;SDS011;62812;55.188;61.302;2023-08-01T10:01:53;14.43;;;5.25;;
74375;SDS011;62812;55.188;61.302;2023-08-01T10:04:23;20.52;;;8.73;;
74375;SDS011;62812;55.188;61.302;2023-08-01T10:06:56;21.23;;;9.32;;
74375;SDS011;62812;55.188;61.302;2023-08-01T10:09:25;16.10;;;7.47;;
74375;SDS011;62812;55.188;61.302;2023-08-01T10:11:57;17.63;;;7.88;;
74375;SDS011;62812;55.188;61.302;2023-08-01T10:14:26;22.33;;;8.30;;
74375;SDS011;62812;55.188;61.302;2023-08-01T10:19:22;17.25;;;6.22;;
74375;SDS011;62812;55.188;61.302;2023-08-01T10:21:49;14.30;;;5.95;;
74375;SDS011;62812;55.188;61.302;2023-08-01T10:24:19;17.38;;;7.50;;
74375;SDS011;62812;55.188;61.302;2023-08-01T10:26:50;20.75;;;8.50;;
74375;SDS011;62812;55.188;61.302;2023-08-01T10:29:18;22.50;;;8.73;;
74375;SDS011;62812;55.188;61.302;2023-08-01T10:31:54;22.02;;;8.18;;
74375;SDS011;62812;55.188;61.302;2023-08-01T10:34:21;20.10;;;8.15;;
74375;SDS011;62812;55.188;61.302;2023-08-01T10:36:54;16.90;;;7.60;;
74375;SDS011;62812;55.188;61.302;2023-08-01T10:39:22;25.17;;;8.77;;
74375;SDS011;62812;55.188;61.302;2023-08-01T10:42:04;17.23;;;9.07;;
74375;SDS011;62812;55.188;61.302;2023-08-01T10:44:48;22.90;;;7.20;;
74375;SDS011;62812;55.188;61.302;2023-08-01T10:47:24;16.25;;;8.95;;
74375;SDS011;62812;55.188;61.302;2023-08-01T10:49:52;21.23;;;9.38;;
74375;SDS011;62812;55.188;61.302;2023-08-01T10:52:20;14.73;;;8.10;;
74375;SDS011;62812;55.188;61.302;2023-08-01T10:54:55;16.80;;;7.85;;
74375;SDS011;62812;55.188;61.302;2023-08-01T10:57:24;16.58;;;9.00;;
74375;SDS011;62812;55.188;61.302;2023-08-01T10:59:53;18.00;;;9.27;;
74375;SDS011;62812;55.188;61.302;2023-08-01T11:02:25;20.70;;;8.15;;
74375;SDS011;62812;55.188;61.302;2023-08-01T11:04:58;19.20;;;7.13;;
74375;SDS011;62812;55.188;61.302;2023-08-01T11:07:32;19.92;;;9.45;;
74375;SDS011;62812;55.188;61.302;2023-08-01T11:10:03;19.38;;;8.65;;
74375;SDS011;62812;55.188;61.302;2023-08-01T11:12:35;13.45;;;5.93;;
74375;SDS011;62812;55.188;61.302;2023-08-01T11:15:02;8.20;;;4.18;;
74375;SDS011;62812;55.188;61.302;2023-08-01T11:17:33;11.00;;;5.20;;
74375;SDS011;62812;55.188;61.302;2023-08-01T11:20:09;10.52;;;5.28;;
74375;SDS011;62812;55.188;61.302;2023-08-01T11:26:09;8.18;;;3.90;;
74375;SDS011;62812;55.188;61.302;2023-08-01T11:28:37;8.95;;;4.50;;
74375;SDS011;62812;55.188;61.302;2023-08-01T11:31:11;6.85;;;4.03;;
74375;SDS011;62812;55.188;61.302;2023-08-01T11:33:42;10.50;;;4.82;;
74375;SDS011;62812;55.188;61.302;2023-08-01T11:36:26;12.40;;;5.50;;
74375;SDS011;62812;55.188;61.302;2023-08-01T11:38:55;13.27;;;4.95;;
74375;SDS011;62812;55.188;61.302;2023-08-01T11:41:23;7.45;;;4.80;;
74375;SDS011;62812;55.188;61.302;2023-08-01T11:43:55;8.48;;;4.93;;
74375;SDS011;62812;55.188;61.302;2023-08-01T11:46:29;8.45;;;4.47;;
74375;SDS011;62812;55.188;61.302;2023-08-01T11:51:54;7.13;;;4.03;;
74375;SDS011;62812;55.188;61.302;2023-08-01T11:57:10;10.40;;;4.53;;
74375;SDS011;62812;55.188;61.302;2023-08-01T11:59:45;13.02;;;5.20;;
74375;SDS011;62812;55.188;61.302;2023-08-01T12:06:13;9.70;;;4.70;;
74375;SDS011;62812;55.188;61.302;2023-08-01T12:08:52;10.23;;;5.18;;
74375;SDS011;62812;55.188;61.302;2023-08-01T12:12:00;9.85;;;4.38;;
74375;SDS011;62812;55.188;61.302;2023-08-01T12:14:46;7.28;;;4.13;;
74375;SDS011;62812;55.188;61.302;2023-08-01T12:17:39;6.63;;;4.13;;
74375;SDS011;62812;55.188;61.302;2023-08-01T12:20:06;8.20;;;4.72;;
74375;SDS011;62812;55.188;61.302;2023-08-01T12:22:41;10.00;;;4.40;;
74375;SDS011;62812;55.188;61.302;2023-08-01T12:25:09;8.80;;;4.60;;
74375;SDS011;62812;55.188;61.302;2023-08-01T12:27:35;13.55;;;5.15;;
74375;SDS011;62812;55.188;61.302;2023-08-01T12:30:05;11.93;;;5.20;;
74375;SDS011;62812;55.188;61.302;2023-08-01T12:32:40;8.38;;;4.80;;
74375;SDS011;62812;55.188;61.302;2023-08-01T12:35:20;9.38;;;5.25;;
74375;SDS011;62812;55.188;61.302;2023-08-01T12:37:50;15.05;;;5.50;;
74375;SDS011;62812;55.188;61.302;2023-08-01T12:40:19;17.95;;;5.25;;
74375;SDS011;62812;55.188;61.302;2023-08-01T12:42:52;14.63;;;5.22;;
74375;SDS011;62812;55.188;61.302;2023-08-01T12:45:20;12.05;;;5.43;;
74375;SDS011;62812;55.188;61.302;2023-08-01T12:47:48;15.45;;;5.68;;
74375;SDS011;62812;55.188;61.302;2023-08-01T12:50:19;13.23;;;6.18;;
74375;SDS011;62812;55.188;61.302;2023-08-01T12:55:35;12.90;;;6.22;;
74375;SDS011;62812;55.188;61.302;2023-08-01T12:58:08;18.10;;;6.05;;
74375;SDS011;62812;55.188;61.302;2023-08-01T13:00:36;13.82;;;6.78;;
74375;SDS011;62812;55.188;61.302;2023-08-01T13:07:11;19.00;;;6.30;;
74375;SDS011;62812;55.188;61.302;2023-08-01T13:09:55;17.83;;;6.75;;
74375;SDS011;62812;55.188;61.302;2023-08-01T13:12:33;8.77;;;3.55;;
74375;SDS011;62812;55.188;61.302;2023-08-01T13:15:06;7.43;;;3.22;;
74375;SDS011;62812;55.188;61.302;2023-08-01T13:18:05;16.30;;;2.60;;
74375;SDS011;62812;55.188;61.302;2023-08-01T13:20:32;7.40;;;2.60;;
74375;SDS011;62812;55.188;61.302;2023-08-01T13:22:59;9.70;;;2.40;;
74375;SDS011;62812;55.188;61.302;2023-08-01T13:25:27;9.63;;;2.40;;
74375;SDS011;62812;55.188;61.302;2023-08-01T13:27:54;8.32;;;2.05;;
74375;SDS011;62812;55.188;61.302;2023-08-01T13:30:22;5.68;;;1.80;;
74375;SDS011;62812;55.188;61.302;2023-08-01T13:35:26;7.03;;;1.90;;
74375;SDS011;62812;55.188;61.302;2023-08-01T13:38:04;5.10;;;2.15;;
74375;SDS011;62812;55.188;61.302;2023-08-01T13:40:38;5.97;;;2.08;;
74375;SDS011;62812;55.188;61.302;2023-08-01T13:43:15;4.22;;;1.67;;
74375;SDS011;62812;55.188;61.302;2023-08-01T13:45:45;6.65;;;2.00;;
74375;SDS011;62812;55.188;61.302;2023-08-01T13:48:17;6.55;;;1.80;;
74375;SDS011;62812;55.188;61.302;2023-08-01T13:50:48;4.93;;;1.58;;
74375;SDS011;62812;55.188;61.302;2023-08-01T13:53:15;3.60;;;1.50;;
74375;SDS011;62812;55.188;61.302;2023-08-01T13:55:50;7.13;;;1.85;;
74375;SDS011;62812;55.188;61.302;2023-08-01T13:58:22;2.58;;;1.02;;
74375;SDS011;62812;55.188;61.302;2023-08-01T14:00:54;5.95;;;1.50;;
74375;SDS011;62812;55.188;61.302;2023-08-01T14:03:33;4.82;;;1.35;;
74375;SDS011;62812;55.188;61.302;2023-08-01T14:06:03;3.35;;;1.33;;
74375;SDS011;62812;55.188;61.302;2023-08-01T14:11:18;3.33;;;0.90;;
74375;SDS011;62812;55.188;61.302;2023-08-01T14:16:46;4.13;;;1.40;;
74375;SDS011;62812;55.188;61.302;2023-08-01T14:19:14;5.85;;;1.60;;
74375;SDS011;62812;55.188;61.302;2023-08-01T14:21:54;4.22;;;1.60;;
74375;SDS011;62812;55.188;61.302;2023-08-01T14:24:31;3.90;;;1.77;;
74375;SDS011;62812;55.188;61.302;2023-08-01T14:26:59;5.80;;;1.63;;
74375;SDS011;62812;55.188;61.302;2023-08-01T14:29:26;3.58;;;1.30;;
74375;SDS011;62812;55.188;61.302;2023-08-01T14:31:57;6.80;;;1.40;;
74375;SDS011;62812;55.188;61.302;2023-08-01T14:34:36;3.90;;;1.58;;
74375;SDS011;62812;55.188;61.302;2023-08-01T14:37:04;5.97;;;1.40;;
74375;SDS011;62812;55.188;61.302;2023-08-01T14:39:31;4.03;;;1.10;;
74375;SDS011;62812;55.188;61.302;2023-08-01T14:42:03;5.50;;;1.20;;
74375;SDS011;62812;55.188;61.302;2023-08-01T14:44:30;3.72;;;1.33;;
74375;SDS011;62812;55.188;61.302;2023-08-01T14:46:57;4.47;;;1.50;;
74375;SDS011;62812;55.188;61.302;2023-08-01T14:49:24;4.30;;;1.90;;
74375;SDS011;62812;55.188;61.302;2023-08-01T14:51:55;4.35;;;1.92;;
74375;SDS011;62812;55.188;61.302;2023-08-01T14:54:21;3.80;;;1.65;;
74375;SDS011;62812;55.188;61.302;2023-08-01T14:56:51;6.00;;;2.90;;
74375;SDS011;62812;55.188;61.302;2023-08-01T14:59:19;6.43;;;2.92;;
74375;SDS011;62812;55.188;61.302;2023-08-01T15:01:47;6.40;;;2.45;;
74375;SDS011;62812;55.188;61.302;2023-08-01T15:04:13;9.48;;;5.00;;
74375;SDS011;62812;55.188;61.302;2023-08-01T15:06:45;7.22;;;2.75;;
74375;SDS011;62812;55.188;61.302;2023-08-01T15:09:12;7.03;;;2.50;;
74375;SDS011;62812;55.188;61.302;2023-08-01T15:11:42;5.88;;;2.20;;
74375;SDS011;62812;55.188;61.302;2023-08-01T15:14:08;8.40;;;2.45;;
74375;SDS011;62812;55.188;61.302;2023-08-01T15:16:37;5.75;;;2.10;;
74375;SDS011;62812;55.188;61.302;2023-08-01T15:19:05;5.32;;;1.90;;
74375;SDS011;62812;55.188;61.302;2023-08-01T15:21:32;4.85;;;2.08;;
74375;SDS011;62812;55.188;61.302;2023-08-01T15:23:59;6.18;;;2.17;;
74375;SDS011;62812;55.188;61.302;2023-08-01T15:26:26;6.63;;;2.20;;